Marietje Marsilla — PCIE — position and weather

sailwx.info

Track history (hours):
 
Tides and Currents Weather Stations Pressure Air Temp Water Temp Dewpoint Dewpoint Depression Visibility Wind Speed Wind Dir Waves Ship Positions

Marietje Marsilla

Last reported at 2017-Nov-19 13:50 UTC. Time now 2017-Nov-20 17:28 UTC.
Position N 56°04' E 016°48'.

Length 126 m; draft 6.9 m.

Type: Cargo ship. MMSI: 246754000.

Date/timePositionNaut miles runAvg speedWind from/ knotsBaromVisibWave heightAir tempDewpointWater temp
2017-Nov-19 13:50N 56°04' E 016°48'410.6
2017-Nov-19 13:30N 56°03' E 016°42'510.6
2017-Nov-19 13:00N 56°00' E 016°33'510.6
2017-Nov-19 12:30N 55°57' E 016°25'510.7
2017-Nov-19 12:00N 55°55' E 016°17'510.8
2017-Nov-19 11:30N 55°52' E 016°09'510.8
2017-Nov-19 11:00N 55°49' E 016°01'510.9
2017-Nov-19 10:30N 55°46' E 015°52'510.9
2017-Nov-19 10:00N 55°44' E 015°44'510.9
2017-Nov-19 09:30N 55°41' E 015°36'511.0
2017-Nov-19 09:00N 55°38' E 015°27'611.1
2017-Nov-19 08:30N 55°35' E 015°19'611.1
2017-Nov-19 08:00N 55°33' E 015°10'1311.1
2017-Nov-19 06:52N 55°26' E 014°50'511.1
2017-Nov-19 06:25N 55°24' E 014°43'410.9
2017-Nov-19 06:00N 55°21' E 014°37'510.8
2017-Nov-19 05:30N 55°17' E 014°31'810.4
2017-Nov-19 04:44N 55°11' E 014°21'210.7
2017-Nov-19 04:30N 55°09' E 014°18'710.7
2017-Nov-19 03:50N 55°04' E 014°10'410.8
2017-Nov-19 03:27N 55°01' E 014°04'6711.3
2017-Nov-18 21:31N 54°32' E 012°20'011.9
2017-Nov-18 21:30N 54°32' E 012°20'611.1
2017-Nov-18 21:00N 54°27' E 012°14'510.6
2017-Nov-18 20:30N 54°25' E 012°06'1811.3
2017-Nov-18 18:52N 54°28' E 011°34'411.6
2017-Nov-18 18:30N 54°30' E 011°28'612.1
2017-Nov-18 18:00N 54°32' E 011°18'612.0
2017-Nov-18 17:30N 54°34' E 011°08'611.7
2017-Nov-18 17:00N 54°34' E 010°58'611.5
2017-Nov-18 16:30N 54°34' E 010°48'611.5
2017-Nov-18 16:00N 54°33' E 010°38'30 6.7
2017-Nov-18 11:32N 54°22' E 009°51'0 8.9
2017-Nov-18 11:29N 54°22' E 009°50'4 8.3
2017-Nov-18 11:00N 54°20' E 009°44'3 6.8
2017-Nov-18 10:30N 54°18' E 009°40'0 0.0
2017-Nov-18 10:00N 54°18' E 009°40'2 4.8
2017-Nov-18 09:30N 54°16' E 009°37'3 6.2
2017-Nov-18 09:00N 54°13' E 009°35'4 8.7
2017-Nov-18 08:30N 54°11' E 009°29'4 8.8
2017-Nov-18 08:00N 54°09' E 009°22'4 7.9
2017-Nov-18 07:29N 54°05' E 009°19'3 6.3
2017-Nov-18 07:00N 54°02' E 009°18'1 1.6
2017-Nov-18 06:30N 54°01' E 009°18'4 7.0
2017-Nov-18 06:00N 53°58' E 009°16'4 8.3
2017-Nov-18 05:30N 53°55' E 009°11'2 4.3
2017-Nov-18 05:01N 53°54' E 009°09'1 1.3
2017-Nov-18 04:30N 53°53' E 009°08'3 6.9
2017-Nov-18 04:00N 53°52' E 009°02'4 8.4
2017-Nov-18 03:30N 53°51' E 008°56'4 8.8
2017-Nov-18 03:00N 53°50' E 008°48'4 8.6
2017-Nov-18 02:30N 53°53' E 008°42'4 8.7
2017-Nov-18 02:00N 53°57' E 008°38'7 9.2
2017-Nov-18 01:14N 53°59' E 008°27'3 8.2
2017-Nov-18 00:50N 53°59' E 008°21'410.5
2017-Nov-18 00:29N 53°59' E 008°15'25610.2
2017-Nov-16 23:21N 51°22' E 002°43'411.6
2017-Nov-16 23:00N 51°18' E 002°42'611.7
2017-Nov-16 22:30N 51°12' E 002°38'612.0
2017-Nov-16 21:59N 51°08' E 002°31'510.5
2017-Nov-16 21:30N 51°04' E 002°25'3 5.2
2017-Nov-16 20:57N 51°03' E 002°21'1 1.3
2017-Nov-16 20:29N 51°03' E 002°20'3 5.1
2017-Nov-16 19:54N 51°02' E 002°16'0 0.0
2017-Nov-16 19:30N 51°02' E 002°16'0 0.0
2017-Nov-16 18:54N 51°02' E 002°16'0 0.0
2017-Nov-16 18:25N 51°02' E 002°16'0 0.0
2017-Nov-16 17:55N 51°02' E 002°16'0 0.0
2017-Nov-16 17:22N 51°02' E 002°16'0 0.0
2017-Nov-16 16:49N 51°02' E 002°16'0 0.0
2017-Nov-16 16:28N 51°02' E 002°16'0 0.0
2017-Nov-16 15:55N 51°02' E 002°16'0 0.0
2017-Nov-16 15:22N 51°02' E 002°16'0 0.0
2017-Nov-16 14:31N 51°02' E 002°16'0 0.0
2017-Nov-16 14:25N 51°02' E 002°16'0 0.0
2017-Nov-16 13:55N 51°02' E 002°16'0 0.0
2017-Nov-16 12:52N 51°02' E 002°16'0 0.0
2017-Nov-16 12:16N 51°02' E 002°16'0 0.0
2017-Nov-16 11:58N 51°02' E 002°16'0 0.0
2017-Nov-16 11:21N 51°02' E 002°16'0 0.0
2017-Nov-16 10:36N 51°02' E 002°16'0 0.0
2017-Nov-16 10:18N 51°02' E 002°16'0 0.0
2017-Nov-16 09:27N 51°02' E 002°16'0 0.0
2017-Nov-16 09:00N 51°02' E 002°16'0 0.0
2017-Nov-16 07:48N 51°02' E 002°16'0 0.0
2017-Nov-16 07:12N 51°02' E 002°16'0 0.0
2017-Nov-16 06:51N 51°02' E 002°16'0 0.0
2017-Nov-16 06:27N 51°02' E 002°16'0 0.0
2017-Nov-16 05:48N 51°02' E 002°16'0 0.0
2017-Nov-16 05:21N 51°02' E 002°16'0 0.0
2017-Nov-16 04:54N 51°02' E 002°16'0 0.0
2017-Nov-16 04:30N 51°02' E 002°16'0 0.0
2017-Nov-16 03:51N 51°02' E 002°16'0 0.0
2017-Nov-16 03:18N 51°02' E 002°16'0 0.0
2017-Nov-16 02:57N 51°02' E 002°16'0 0.0
2017-Nov-16 02:30N 51°02' E 002°16'0 0.0
2017-Nov-16 02:00N 51°02' E 002°16'0 0.0
2017-Nov-16 01:24N 51°02' E 002°16'0 0.0
2017-Nov-16 00:57N 51°02' E 002°16'0 0.0
2017-Nov-16 00:24N 51°02' E 002°16'0 0.0
2017-Nov-15 23:54N 51°02' E 002°16'0 0.0
2017-Nov-15 23:24N 51°02' E 002°16'0 0.0
2017-Nov-15 23:00N 51°02' E 002°16'0 0.0
2017-Nov-15 22:21N 51°02' E 002°16'0 0.0
2017-Nov-15 21:48N 51°02' E 002°16'0 0.0
2017-Nov-15 21:30N 51°02' E 002°16'0 0.0
2017-Nov-15 20:57N 51°02' E 002°16'0 0.0
2017-Nov-15 20:30N 51°02' E 002°16'0 0.0
2017-Nov-15 20:00N 51°02' E 002°16'0 0.0
2017-Nov-15 19:30N 51°02' E 002°16'0 0.0
2017-Nov-15 18:54N 51°02' E 002°16'0 0.0
2017-Nov-15 18:30N 51°02' E 002°16'0 0.0
2017-Nov-15 17:51N 51°02' E 002°16'0 0.0
2017-Nov-15 17:21N 51°02' E 002°16'0 0.0
2017-Nov-15 17:00N 51°02' E 002°16'0 0.0
2017-Nov-15 16:27N 51°02' E 002°16'0 0.0
2017-Nov-15 16:00N 51°02' E 002°16'0 0.0
2017-Nov-15 14:57N 51°02' E 002°16'0 0.0
2017-Nov-15 14:15N 51°02' E 002°16'0 0.0
2017-Nov-15 13:57N 51°02' E 002°16'0 0.0
2017-Nov-15 12:48N 51°02' E 002°16'0 0.0
2017-Nov-15 12:30N 51°02' E 002°16'0 0.0
2017-Nov-15 12:00N 51°02' E 002°16'0 0.0
2017-Nov-15 10:39N 51°02' E 002°16'0 0.0
2017-Nov-15 09:57N 51°02' E 002°16'0 0.0
2017-Nov-15 09:30N 51°02' E 002°16'0 0.0
2017-Nov-15 08:15N 51°02' E 002°16'0 0.0
2017-Nov-15 07:51N 51°02' E 002°16'0 0.0
2017-Nov-15 07:30N 51°02' E 002°16'0 0.0
2017-Nov-15 06:45N 51°02' E 002°16'0 0.0
2017-Nov-15 06:21N 51°02' E 002°16'0 0.3
2017-Nov-15 05:59N 51°02' E 002°16'3 5.6
2017-Nov-15 05:30N 51°03' E 002°20'1 1.3
2017-Nov-15 04:54N 51°03' E 002°21'2 6.1
2017-Nov-15 04:30N 51°04' E 002°18'611.3
2017-Nov-15 04:00N 51°03' E 002°09'611.3
2017-Nov-15 03:30N 51°02' E 001°60'611.1
2017-Nov-15 03:00N 51°02' E 001°51'2 4.7
2017-Nov-15 02:30N 51°02' E 001°47'2 4.7
2017-Nov-15 02:00N 51°02' E 001°44'3 5.5
2017-Nov-15 01:30N 51°01' E 001°40'4 7.7
2017-Nov-15 01:00N 50°58' E 001°36'8013.4
2017-Nov-14 19:01N 49°55' E 000°17'114.5
2017-Nov-14 18:55N 49°54' E 000°16'614.8
2017-Nov-14 18:30N 49°49' E 000°10'815.1
2017-Nov-14 18:00N 49°43' E 000°03'714.0
2017-Nov-14 17:30N 49°36' E 000°00'713.4
2017-Nov-14 17:00N 49°30' W 000°01'511.2
2017-Nov-14 16:30N 49°26' E 000°06'510.9
2017-Nov-14 16:00N 49°26' E 000°14'611.7
2017-Nov-14 15:31N 49°27' E 000°23'612.0
2017-Nov-14 15:00N 49°29' E 000°32'510.3
2017-Nov-14 14:31N 49°27' E 000°39'510.8
2017-Nov-14 14:00N 49°31' E 000°45'611.7
2017-Nov-14 13:31N 49°26' E 000°48'2 4.5
2017-Nov-14 13:01N 49°26' E 000°52'3 6.2
2017-Nov-14 12:31N 49°26' E 000°56'510.8
2017-Nov-14 12:00N 49°21' E 000°58'3 5.6
2017-Nov-14 11:30N 49°23' E 001°01'0 0.0
2017-Nov-14 10:58N 49°23' E 001°01'0 0.1
2017-Nov-14 10:25N 49°23' E 001°01'0 0.1
2017-Nov-14 09:58N 49°23' E 001°01'0 0.0
2017-Nov-14 09:25N 49°23' E 001°01'0 0.0
2017-Nov-14 08:55N 49°23' E 001°01'0 0.0
2017-Nov-14 08:28N 49°23' E 001°01'0 0.0
2017-Nov-14 07:55N 49°23' E 001°01'0 0.0
2017-Nov-14 07:25N 49°23' E 001°01'0 0.0
2017-Nov-14 06:55N 49°23' E 001°01'0 0.0
2017-Nov-14 06:28N 49°23' E 001°01'0 0.0
2017-Nov-14 05:58N 49°23' E 001°01'0 0.0
2017-Nov-14 05:28N 49°23' E 001°01'0 0.0
2017-Nov-14 04:58N 49°23' E 001°01'0 0.0
2017-Nov-14 04:28N 49°23' E 001°01'0 0.0
2017-Nov-14 03:58N 49°23' E 001°01'0 0.0
2017-Nov-14 03:25N 49°23' E 001°01'0 0.0
2017-Nov-14 02:58N 49°23' E 001°01'0 0.0
2017-Nov-14 02:28N 49°23' E 001°01'0 0.0
2017-Nov-14 01:58N 49°23' E 001°01'0 0.0
2017-Nov-14 01:28N 49°23' E 001°01'0 0.0
2017-Nov-14 00:58N 49°23' E 001°01'0 0.0
2017-Nov-14 00:25N 49°23' E 001°01'0 0.0
2017-Nov-13 23:55N 49°23' E 001°01'0 0.0
2017-Nov-13 23:25N 49°23' E 001°01'0 0.0
2017-Nov-13 22:58N 49°23' E 001°01'0 0.0
2017-Nov-13 22:25N 49°23' E 001°01'0 0.0
2017-Nov-13 21:58N 49°23' E 001°01'0 0.0
2017-Nov-13 01:55N 49°23' E 001°01'0 0.0
2017-Nov-13 01:25N 49°23' E 001°01'0 0.0
2017-Nov-13 00:55N 49°23' E 001°01'0 0.0
2017-Nov-13 00:25N 49°23' E 001°01'0 0.0
2017-Nov-12 23:58N 49°23' E 001°01'0 0.0
2017-Nov-12 23:28N 49°23' E 001°01'0 0.0
2017-Nov-12 22:58N 49°23' E 001°01'0 0.0
2017-Nov-12 22:28N 49°23' E 001°01'0 0.0
2017-Nov-12 21:58N 49°23' E 001°01'0 0.0
2017-Nov-12 21:28N 49°23' E 001°01'0 0.0
2017-Nov-12 20:55N 49°23' E 001°01'0 0.0
2017-Nov-12 20:28N 49°23' E 001°01'0 0.0
2017-Nov-12 19:58N 49°23' E 001°01'0 0.0
2017-Nov-12 19:28N 49°23' E 001°01'0 0.0
2017-Nov-12 18:58N 49°23' E 001°01'0 0.0
2017-Nov-12 18:31N 49°23' E 001°01'0 1.0
2017-Nov-12 18:00N 49°23' E 001°01'4 7.1
2017-Nov-12 17:31N 49°21' E 000°56'612.5
2017-Nov-12 17:01N 49°28' E 000°56'3 6.6
2017-Nov-12 16:30N 49°26' E 000°52'2 4.4
2017-Nov-12 16:00N 49°26' E 000°48'510.4
2017-Nov-12 15:31N 49°31' E 000°45'4 8.6
2017-Nov-12 15:01N 49°29' E 000°40'5 9.0
2017-Nov-12 14:30N 49°27' E 000°33'4 8.7
2017-Nov-12 14:00N 49°28' E 000°27'612.5
2017-Nov-12 13:31N 49°26' E 000°18'611.6
2017-Nov-12 13:01N 49°26' E 000°09'611.8
2017-Nov-12 12:30N 49°28' E 000°00'4 8.5
2017-Nov-12 12:01N 49°30' W 000°05'4 8.1
2017-Nov-12 11:31N 49°34' W 000°06'510.1
2017-Nov-12 11:01N 49°39' W 000°06'510.1
2017-Nov-12 10:30N 49°44' W 000°06'510.0
2017-Nov-12 10:00N 49°49' W 000°05'5 9.3
2017-Nov-12 09:31N 49°54' W 000°05'5 9.4
2017-Nov-12 09:01N 49°58' W 000°05'5 9.6
2017-Nov-12 08:31N 50°03' W 000°04'2310.1
2017-Nov-12 06:12N 50°26' W 000°02'2 9.4
2017-Nov-12 06:01N 50°27' E 000°01'1810.0
2017-Nov-12 04:15N 50°36' E 000°25'3 9.9
2017-Nov-12 04:00N 50°37' E 000°29'5 9.9
2017-Nov-12 03:30N 50°39' E 000°35'510.0
2017-Nov-12 03:01N 50°42' E 000°42'510.4
2017-Nov-12 02:30N 50°45' E 000°48'510.9
2017-Nov-12 02:01N 50°48' E 000°55'611.4
2017-Nov-12 01:30N 50°52' E 001°03'612.0
2017-Nov-12 00:59N 50°56' E 001°10'612.5
2017-Nov-12 00:30N 50°60' E 001°18'612.8
2017-Nov-12 00:01N 51°03' E 001°26'612.5
2017-Nov-11 23:31N 51°07' E 001°33'611.8
2017-Nov-11 23:00N 51°11' E 001°41'611.2
2017-Nov-11 22:31N 51°15' E 001°47'510.8
2017-Nov-11 22:00N 51°19' E 001°52'510.5
2017-Nov-11 21:31N 51°23' E 001°57'510.1
2017-Nov-11 21:00N 51°27' E 002°02'510.5
2017-Nov-11 20:31N 51°31' E 002°08'510.5
2017-Nov-11 20:01N 51°36' E 002°13'13211.0
2017-Nov-11 08:00N 53°18' E 004°29'510.3
2017-Nov-11 07:30N 53°23' E 004°32'329 8.5
2017-Nov-09 16:45N 57°45' E 010°25'2 8.5
2017-Nov-09 16:29N 57°45' E 010°29'4 8.2
2017-Nov-09 16:00N 57°46' E 010°37'4 8.5
2017-Nov-09 15:30N 57°46' E 010°44'510.1
2017-Nov-09 15:00N 57°42' E 010°51'510.5
2017-Nov-09 14:30N 57°38' E 010°57'510.7
2017-Nov-09 14:00N 57°34' E 011°04'  
Track history (hours):
 
Tides and Currents Weather Stations Pressure Air Temp Water Temp Dewpoint Dewpoint Depression Visibility Wind Speed Wind Dir Waves Ship Positions

Marietje Marsilla

Last reported at 2017-Nov-19 13:50 UTC. Time now 2017-Nov-20 17:28 UTC.
Position N 56°04' E 016°48'.

Length 126 m; draft 6.9 m.

Type: Cargo ship. MMSI: 246754000.

Date/timePositionNaut miles runAvg speedWind from/ knotsBaromVisibWave heightAir tempDewpointWater temp
2017-Nov-19 13:50N 56°04' E 016°48'410.6
2017-Nov-19 13:30N 56°03' E 016°42'510.6
2017-Nov-19 13:00N 56°00' E 016°33'510.6
2017-Nov-19 12:30N 55°57' E 016°25'510.7
2017-Nov-19 12:00N 55°55' E 016°17'510.8
2017-Nov-19 11:30N 55°52' E 016°09'510.8
2017-Nov-19 11:00N 55°49' E 016°01'510.9
2017-Nov-19 10:30N 55°46' E 015°52'510.9
2017-Nov-19 10:00N 55°44' E 015°44'510.9
2017-Nov-19 09:30N 55°41' E 015°36'511.0
2017-Nov-19 09:00N 55°38' E 015°27'611.1
2017-Nov-19 08:30N 55°35' E 015°19'611.1
2017-Nov-19 08:00N 55°33' E 015°10'1311.1
2017-Nov-19 06:52N 55°26' E 014°50'511.1
2017-Nov-19 06:25N 55°24' E 014°43'410.9
2017-Nov-19 06:00N 55°21' E 014°37'510.8
2017-Nov-19 05:30N 55°17' E 014°31'810.4
2017-Nov-19 04:44N 55°11' E 014°21'210.7
2017-Nov-19 04:30N 55°09' E 014°18'710.7
2017-Nov-19 03:50N 55°04' E 014°10'410.8
2017-Nov-19 03:27N 55°01' E 014°04'6711.3
2017-Nov-18 21:31N 54°32' E 012°20'011.9
2017-Nov-18 21:30N 54°32' E 012°20'611.1
2017-Nov-18 21:00N 54°27' E 012°14'510.6
2017-Nov-18 20:30N 54°25' E 012°06'1811.3
2017-Nov-18 18:52N 54°28' E 011°34'411.6
2017-Nov-18 18:30N 54°30' E 011°28'612.1
2017-Nov-18 18:00N 54°32' E 011°18'612.0
2017-Nov-18 17:30N 54°34' E 011°08'611.7
2017-Nov-18 17:00N 54°34' E 010°58'611.5
2017-Nov-18 16:30N 54°34' E 010°48'611.5
2017-Nov-18 16:00N 54°33' E 010°38'30 6.7
2017-Nov-18 11:32N 54°22' E 009°51'0 8.9
2017-Nov-18 11:29N 54°22' E 009°50'4 8.3
2017-Nov-18 11:00N 54°20' E 009°44'3 6.8
2017-Nov-18 10:30N 54°18' E 009°40'0 0.0
2017-Nov-18 10:00N 54°18' E 009°40'2 4.8
2017-Nov-18 09:30N 54°16' E 009°37'3 6.2
2017-Nov-18 09:00N 54°13' E 009°35'4 8.7
2017-Nov-18 08:30N 54°11' E 009°29'4 8.8
2017-Nov-18 08:00N 54°09' E 009°22'4 7.9
2017-Nov-18 07:29N 54°05' E 009°19'3 6.3
2017-Nov-18 07:00N 54°02' E 009°18'1 1.6
2017-Nov-18 06:30N 54°01' E 009°18'4 7.0
2017-Nov-18 06:00N 53°58' E 009°16'4 8.3
2017-Nov-18 05:30N 53°55' E 009°11'2 4.3
2017-Nov-18 05:01N 53°54' E 009°09'1 1.3
2017-Nov-18 04:30N 53°53' E 009°08'3 6.9
2017-Nov-18 04:00N 53°52' E 009°02'4 8.4
2017-Nov-18 03:30N 53°51' E 008°56'4 8.8
2017-Nov-18 03:00N 53°50' E 008°48'4 8.6
2017-Nov-18 02:30N 53°53' E 008°42'4 8.7
2017-Nov-18 02:00N 53°57' E 008°38'7 9.2
2017-Nov-18 01:14N 53°59' E 008°27'3 8.2
2017-Nov-18 00:50N 53°59' E 008°21'410.5
2017-Nov-18 00:29N 53°59' E 008°15'25610.2
2017-Nov-16 23:21N 51°22' E 002°43'411.6
2017-Nov-16 23:00N 51°18' E 002°42'611.7
2017-Nov-16 22:30N 51°12' E 002°38'612.0
2017-Nov-16 21:59N 51°08' E 002°31'510.5
2017-Nov-16 21:30N 51°04' E 002°25'3 5.2
2017-Nov-16 20:57N 51°03' E 002°21'1 1.3
2017-Nov-16 20:29N 51°03' E 002°20'3 5.1
2017-Nov-16 19:54N 51°02' E 002°16'0 0.0
2017-Nov-16 19:30N 51°02' E 002°16'0 0.0
2017-Nov-16 18:54N 51°02' E 002°16'0 0.0
2017-Nov-16 18:25N 51°02' E 002°16'0 0.0
2017-Nov-16 17:55N 51°02' E 002°16'0 0.0
2017-Nov-16 17:22N 51°02' E 002°16'0 0.0
2017-Nov-16 16:49N 51°02' E 002°16'0 0.0
2017-Nov-16 16:28N 51°02' E 002°16'0 0.0
2017-Nov-16 15:55N 51°02' E 002°16'0 0.0
2017-Nov-16 15:22N 51°02' E 002°16'0 0.0
2017-Nov-16 14:31N 51°02' E 002°16'0 0.0
2017-Nov-16 14:25N 51°02' E 002°16'0 0.0
2017-Nov-16 13:55N 51°02' E 002°16'0 0.0
2017-Nov-16 12:52N 51°02' E 002°16'0 0.0
2017-Nov-16 12:16N 51°02' E 002°16'0 0.0
2017-Nov-16 11:58N 51°02' E 002°16'0 0.0
2017-Nov-16 11:21N 51°02' E 002°16'0 0.0
2017-Nov-16 10:36N 51°02' E 002°16'0 0.0
2017-Nov-16 10:18N 51°02' E 002°16'0 0.0
2017-Nov-16 09:27N 51°02' E 002°16'0 0.0
2017-Nov-16 09:00N 51°02' E 002°16'0 0.0
2017-Nov-16 07:48N 51°02' E 002°16'0 0.0
2017-Nov-16 07:12N 51°02' E 002°16'0 0.0
2017-Nov-16 06:51N 51°02' E 002°16'0 0.0
2017-Nov-16 06:27N 51°02' E 002°16'0 0.0
2017-Nov-16 05:48N 51°02' E 002°16'0 0.0
2017-Nov-16 05:21N 51°02' E 002°16'0 0.0
2017-Nov-16 04:54N 51°02' E 002°16'0 0.0
2017-Nov-16 04:30N 51°02' E 002°16'0 0.0
2017-Nov-16 03:51N 51°02' E 002°16'0 0.0
2017-Nov-16 03:18N 51°02' E 002°16'0 0.0
2017-Nov-16 02:57N 51°02' E 002°16'0 0.0
2017-Nov-16 02:30N 51°02' E 002°16'0 0.0
2017-Nov-16 02:00N 51°02' E 002°16'0 0.0
2017-Nov-16 01:24N 51°02' E 002°16'0 0.0
2017-Nov-16 00:57N 51°02' E 002°16'0 0.0
2017-Nov-16 00:24N 51°02' E 002°16'0 0.0
2017-Nov-15 23:54N 51°02' E 002°16'0 0.0
2017-Nov-15 23:24N 51°02' E 002°16'0 0.0
2017-Nov-15 23:00N 51°02' E 002°16'0 0.0
2017-Nov-15 22:21N 51°02' E 002°16'0 0.0
2017-Nov-15 21:48N 51°02' E 002°16'0 0.0
2017-Nov-15 21:30N 51°02' E 002°16'0 0.0
2017-Nov-15 20:57N 51°02' E 002°16'0 0.0
2017-Nov-15 20:30N 51°02' E 002°16'0 0.0
2017-Nov-15 20:00N 51°02' E 002°16'0 0.0
2017-Nov-15 19:30N 51°02' E 002°16'0 0.0
2017-Nov-15 18:54N 51°02' E 002°16'0 0.0
2017-Nov-15 18:30N 51°02' E 002°16'0 0.0
2017-Nov-15 17:51N 51°02' E 002°16'0 0.0
2017-Nov-15 17:21N 51°02' E 002°16'0 0.0
2017-Nov-15 17:00N 51°02' E 002°16'0 0.0
2017-Nov-15 16:27N 51°02' E 002°16'0 0.0
2017-Nov-15 16:00N 51°02' E 002°16'0 0.0
2017-Nov-15 14:57N 51°02' E 002°16'0 0.0
2017-Nov-15 14:15N 51°02' E 002°16'0 0.0
2017-Nov-15 13:57N 51°02' E 002°16'0 0.0
2017-Nov-15 12:48N 51°02' E 002°16'0 0.0
2017-Nov-15 12:30N 51°02' E 002°16'0 0.0
2017-Nov-15 12:00N 51°02' E 002°16'0 0.0
2017-Nov-15 10:39N 51°02' E 002°16'0 0.0
2017-Nov-15 09:57N 51°02' E 002°16'0 0.0
2017-Nov-15 09:30N 51°02' E 002°16'0 0.0
2017-Nov-15 08:15N 51°02' E 002°16'0 0.0
2017-Nov-15 07:51N 51°02' E 002°16'0 0.0
2017-Nov-15 07:30N 51°02' E 002°16'0 0.0
2017-Nov-15 06:45N 51°02' E 002°16'0 0.0
2017-Nov-15 06:21N 51°02' E 002°16'0 0.3
2017-Nov-15 05:59N 51°02' E 002°16'3 5.6
2017-Nov-15 05:30N 51°03' E 002°20'1 1.3
2017-Nov-15 04:54N 51°03' E 002°21'2 6.1
2017-Nov-15 04:30N 51°04' E 002°18'611.3
2017-Nov-15 04:00N 51°03' E 002°09'611.3
2017-Nov-15 03:30N 51°02' E 001°60'611.1
2017-Nov-15 03:00N 51°02' E 001°51'2 4.7
2017-Nov-15 02:30N 51°02' E 001°47'2 4.7
2017-Nov-15 02:00N 51°02' E 001°44'3 5.5
2017-Nov-15 01:30N 51°01' E 001°40'4 7.7
2017-Nov-15 01:00N 50°58' E 001°36'8013.4
2017-Nov-14 19:01N 49°55' E 000°17'114.5
2017-Nov-14 18:55N 49°54' E 000°16'614.8
2017-Nov-14 18:30N 49°49' E 000°10'815.1
2017-Nov-14 18:00N 49°43' E 000°03'714.0
2017-Nov-14 17:30N 49°36' E 000°00'713.4
2017-Nov-14 17:00N 49°30' W 000°01'511.2
2017-Nov-14 16:30N 49°26' E 000°06'510.9
2017-Nov-14 16:00N 49°26' E 000°14'611.7
2017-Nov-14 15:31N 49°27' E 000°23'612.0
2017-Nov-14 15:00N 49°29' E 000°32'510.3
2017-Nov-14 14:31N 49°27' E 000°39'510.8
2017-Nov-14 14:00N 49°31' E 000°45'611.7
2017-Nov-14 13:31N 49°26' E 000°48'2 4.5
2017-Nov-14 13:01N 49°26' E 000°52'3 6.2
2017-Nov-14 12:31N 49°26' E 000°56'510.8
2017-Nov-14 12:00N 49°21' E 000°58'3 5.6
2017-Nov-14 11:30N 49°23' E 001°01'0 0.0
2017-Nov-14 10:58N 49°23' E 001°01'0 0.1
2017-Nov-14 10:25N 49°23' E 001°01'0 0.1
2017-Nov-14 09:58N 49°23' E 001°01'0 0.0
2017-Nov-14 09:25N 49°23' E 001°01'0 0.0
2017-Nov-14 08:55N 49°23' E 001°01'0 0.0
2017-Nov-14 08:28N 49°23' E 001°01'0 0.0
2017-Nov-14 07:55N 49°23' E 001°01'0 0.0
2017-Nov-14 07:25N 49°23' E 001°01'0 0.0
2017-Nov-14 06:55N 49°23' E 001°01'0 0.0
2017-Nov-14 06:28N 49°23' E 001°01'0 0.0
2017-Nov-14 05:58N 49°23' E 001°01'0 0.0
2017-Nov-14 05:28N 49°23' E 001°01'0 0.0
2017-Nov-14 04:58N 49°23' E 001°01'0 0.0
2017-Nov-14 04:28N 49°23' E 001°01'0 0.0
2017-Nov-14 03:58N 49°23' E 001°01'0 0.0
2017-Nov-14 03:25N 49°23' E 001°01'0 0.0
2017-Nov-14 02:58N 49°23' E 001°01'0 0.0
2017-Nov-14 02:28N 49°23' E 001°01'0 0.0
2017-Nov-14 01:58N 49°23' E 001°01'0 0.0
2017-Nov-14 01:28N 49°23' E 001°01'0 0.0
2017-Nov-14 00:58N 49°23' E 001°01'0 0.0
2017-Nov-14 00:25N 49°23' E 001°01'0 0.0
2017-Nov-13 23:55N 49°23' E 001°01'0 0.0
2017-Nov-13 23:25N 49°23' E 001°01'0 0.0
2017-Nov-13 22:58N 49°23' E 001°01'0 0.0
2017-Nov-13 22:25N 49°23' E 001°01'0 0.0
2017-Nov-13 21:58N 49°23' E 001°01'0 0.0
2017-Nov-13 01:55N 49°23' E 001°01'0 0.0
2017-Nov-13 01:25N 49°23' E 001°01'0 0.0
2017-Nov-13 00:55N 49°23' E 001°01'0 0.0
2017-Nov-13 00:25N 49°23' E 001°01'0 0.0
2017-Nov-12 23:58N 49°23' E 001°01'0 0.0
2017-Nov-12 23:28N 49°23' E 001°01'0 0.0
2017-Nov-12 22:58N 49°23' E 001°01'0 0.0
2017-Nov-12 22:28N 49°23' E 001°01'0 0.0
2017-Nov-12 21:58N 49°23' E 001°01'0 0.0
2017-Nov-12 21:28N 49°23' E 001°01'0 0.0
2017-Nov-12 20:55N 49°23' E 001°01'0 0.0
2017-Nov-12 20:28N 49°23' E 001°01'0 0.0
2017-Nov-12 19:58N 49°23' E 001°01'0 0.0
2017-Nov-12 19:28N 49°23' E 001°01'0 0.0
2017-Nov-12 18:58N 49°23' E 001°01'0 0.0
2017-Nov-12 18:31N 49°23' E 001°01'0 1.0
2017-Nov-12 18:00N 49°23' E 001°01'4 7.1
2017-Nov-12 17:31N 49°21' E 000°56'612.5
2017-Nov-12 17:01N 49°28' E 000°56'3 6.6
2017-Nov-12 16:30N 49°26' E 000°52'2 4.4
2017-Nov-12 16:00N 49°26' E 000°48'510.4
2017-Nov-12 15:31N 49°31' E 000°45'4 8.6
2017-Nov-12 15:01N 49°29' E 000°40'5 9.0
2017-Nov-12 14:30N 49°27' E 000°33'4 8.7
2017-Nov-12 14:00N 49°28' E 000°27'612.5
2017-Nov-12 13:31N 49°26' E 000°18'611.6
2017-Nov-12 13:01N 49°26' E 000°09'611.8
2017-Nov-12 12:30N 49°28' E 000°00'4 8.5
2017-Nov-12 12:01N 49°30' W 000°05'4 8.1
2017-Nov-12 11:31N 49°34' W 000°06'510.1
2017-Nov-12 11:01N 49°39' W 000°06'510.1
2017-Nov-12 10:30N 49°44' W 000°06'510.0
2017-Nov-12 10:00N 49°49' W 000°05'5 9.3
2017-Nov-12 09:31N 49°54' W 000°05'5 9.4
2017-Nov-12 09:01N 49°58' W 000°05'5 9.6
2017-Nov-12 08:31N 50°03' W 000°04'2310.1
2017-Nov-12 06:12N 50°26' W 000°02'2 9.4
2017-Nov-12 06:01N 50°27' E 000°01'1810.0
2017-Nov-12 04:15N 50°36' E 000°25'3 9.9
2017-Nov-12 04:00N 50°37' E 000°29'5 9.9
2017-Nov-12 03:30N 50°39' E 000°35'510.0
2017-Nov-12 03:01N 50°42' E 000°42'510.4
2017-Nov-12 02:30N 50°45' E 000°48'510.9
2017-Nov-12 02:01N 50°48' E 000°55'611.4
2017-Nov-12 01:30N 50°52' E 001°03'612.0
2017-Nov-12 00:59N 50°56' E 001°10'612.5
2017-Nov-12 00:30N 50°60' E 001°18'612.8
2017-Nov-12 00:01N 51°03' E 001°26'612.5
2017-Nov-11 23:31N 51°07' E 001°33'611.8
2017-Nov-11 23:00N 51°11' E 001°41'611.2
2017-Nov-11 22:31N 51°15' E 001°47'510.8
2017-Nov-11 22:00N 51°19' E 001°52'510.5
2017-Nov-11 21:31N 51°23' E 001°57'510.1
2017-Nov-11 21:00N 51°27' E 002°02'510.5
2017-Nov-11 20:31N 51°31' E 002°08'510.5
2017-Nov-11 20:01N 51°36' E 002°13'13211.0
2017-Nov-11 08:00N 53°18' E 004°29'510.3
2017-Nov-11 07:30N 53°23' E 004°32'329 8.5
2017-Nov-09 16:45N 57°45' E 010°25'2 8.5
2017-Nov-09 16:29N 57°45' E 010°29'4 8.2
2017-Nov-09 16:00N 57°46' E 010°37'4 8.5
2017-Nov-09 15:30N 57°46' E 010°44'510.1
2017-Nov-09 15:00N 57°42' E 010°51'510.5
2017-Nov-09 14:30N 57°38' E 010°57'510.7
2017-Nov-09 14:00N 57°34' E 011°04'  

Dump ship's entire track history